sensor_id;sensor_type;location;lat;lon;timestamp;P1;durP1;ratioP1;P2;durP2;ratioP2
27642;SDS011;15053;48.618;10.024;2022-11-20T00:01:14;8.18;;;4.90;;
27642;SDS011;15053;48.618;10.024;2022-11-20T00:03:46;8.75;;;4.93;;
27642;SDS011;15053;48.618;10.024;2022-11-20T00:06:14;8.75;;;4.47;;
27642;SDS011;15053;48.618;10.024;2022-11-20T00:08:42;7.22;;;4.15;;
27642;SDS011;15053;48.618;10.024;2022-11-20T00:11:11;5.97;;;3.88;;
27642;SDS011;15053;48.618;10.024;2022-11-20T00:13:42;7.07;;;4.50;;
27642;SDS011;15053;48.618;10.024;2022-11-20T00:16:10;7.10;;;4.45;;
27642;SDS011;15053;48.618;10.024;2022-11-20T00:18:38;9.68;;;4.85;;
27642;SDS011;15053;48.618;10.024;2022-11-20T00:21:10;7.05;;;4.75;;
27642;SDS011;15053;48.618;10.024;2022-11-20T00:23:39;9.85;;;5.00;;
27642;SDS011;15053;48.618;10.024;2022-11-20T00:26:06;6.38;;;4.53;;
27642;SDS011;15053;48.618;10.024;2022-11-20T00:28:34;7.43;;;4.32;;
27642;SDS011;15053;48.618;10.024;2022-11-20T00:31:04;10.00;;;4.75;;
27642;SDS011;15053;48.618;10.024;2022-11-20T00:33:41;6.60;;;3.83;;
27642;SDS011;15053;48.618;10.024;2022-11-20T00:36:12;11.00;;;5.10;;
27642;SDS011;15053;48.618;10.024;2022-11-20T00:38:50;8.88;;;5.05;;
27642;SDS011;15053;48.618;10.024;2022-11-20T00:41:18;7.82;;;4.55;;
27642;SDS011;15053;48.618;10.024;2022-11-20T00:43:44;7.75;;;4.75;;
27642;SDS011;15053;48.618;10.024;2022-11-20T00:46:18;8.55;;;4.82;;
27642;SDS011;15053;48.618;10.024;2022-11-20T00:48:46;5.93;;;3.95;;
27642;SDS011;15053;48.618;10.024;2022-11-20T00:51:14;7.50;;;4.80;;
27642;SDS011;15053;48.618;10.024;2022-11-20T00:53:43;9.15;;;4.63;;
27642;SDS011;15053;48.618;10.024;2022-11-20T00:56:10;9.25;;;4.57;;
27642;SDS011;15053;48.618;10.024;2022-11-20T00:58:39;9.90;;;4.55;;
27642;SDS011;15053;48.618;10.024;2022-11-20T01:01:08;9.55;;;4.90;;
27642;SDS011;15053;48.618;10.024;2022-11-20T01:03:38;7.18;;;4.47;;
27642;SDS011;15053;48.618;10.024;2022-11-20T01:06:10;6.35;;;4.53;;
27642;SDS011;15053;48.618;10.024;2022-11-20T01:08:40;7.50;;;4.72;;
27642;SDS011;15053;48.618;10.024;2022-11-20T01:11:10;8.48;;;4.75;;
27642;SDS011;15053;48.618;10.024;2022-11-20T01:13:39;8.20;;;4.93;;
27642;SDS011;15053;48.618;10.024;2022-11-20T01:16:14;12.77;;;4.45;;
27642;SDS011;15053;48.618;10.024;2022-11-20T01:18:44;6.50;;;4.18;;
27642;SDS011;15053;48.618;10.024;2022-11-20T01:21:14;7.40;;;3.80;;
27642;SDS011;15053;48.618;10.024;2022-11-20T01:23:42;7.38;;;4.45;;
27642;SDS011;15053;48.618;10.024;2022-11-20T01:26:10;6.20;;;3.78;;
27642;SDS011;15053;48.618;10.024;2022-11-20T01:28:48;5.80;;;3.85;;
27642;SDS011;15053;48.618;10.024;2022-11-20T01:31:22;5.30;;;4.10;;
27642;SDS011;15053;48.618;10.024;2022-11-20T01:33:50;9.68;;;4.15;;
27642;SDS011;15053;48.618;10.024;2022-11-20T01:36:22;5.97;;;3.92;;
27642;SDS011;15053;48.618;10.024;2022-11-20T01:38:54;7.20;;;4.50;;
27642;SDS011;15053;48.618;10.024;2022-11-20T01:41:23;7.93;;;4.32;;
27642;SDS011;15053;48.618;10.024;2022-11-20T01:44:09;7.55;;;4.15;;
27642;SDS011;15053;48.618;10.024;2022-11-20T01:46:42;7.15;;;3.97;;
27642;SDS011;15053;48.618;10.024;2022-11-20T01:49:24;8.75;;;3.67;;
27642;SDS011;15053;48.618;10.024;2022-11-20T01:51:57;5.82;;;3.53;;
27642;SDS011;15053;48.618;10.024;2022-11-20T01:57:01;4.47;;;3.17;;
27642;SDS011;15053;48.618;10.024;2022-11-20T01:59:31;9.02;;;4.03;;
27642;SDS011;15053;48.618;10.024;2022-11-20T02:01:57;3.28;;;2.85;;
27642;SDS011;15053;48.618;10.024;2022-11-20T02:04:24;4.53;;;3.35;;
27642;SDS011;15053;48.618;10.024;2022-11-20T02:07:09;4.80;;;2.83;;
27642;SDS011;15053;48.618;10.024;2022-11-20T02:09:36;5.28;;;3.42;;
27642;SDS011;15053;48.618;10.024;2022-11-20T02:12:03;5.78;;;3.35;;
27642;SDS011;15053;48.618;10.024;2022-11-20T02:14:30;6.25;;;3.30;;
27642;SDS011;15053;48.618;10.024;2022-11-20T02:16:57;7.75;;;3.35;;
27642;SDS011;15053;48.618;10.024;2022-11-20T02:19:27;4.45;;;3.38;;
27642;SDS011;15053;48.618;10.024;2022-11-20T02:22:04;8.40;;;3.40;;
27642;SDS011;15053;48.618;10.024;2022-11-20T02:24:36;4.88;;;3.30;;
27642;SDS011;15053;48.618;10.024;2022-11-20T02:27:04;5.10;;;3.53;;
27642;SDS011;15053;48.618;10.024;2022-11-20T02:29:35;4.68;;;2.70;;
27642;SDS011;15053;48.618;10.024;2022-11-20T02:32:05;5.43;;;3.28;;
27642;SDS011;15053;48.618;10.024;2022-11-20T02:34:32;6.07;;;2.92;;
27642;SDS011;15053;48.618;10.024;2022-11-20T02:36:58;4.97;;;3.28;;
27642;SDS011;15053;48.618;10.024;2022-11-20T02:39:26;4.00;;;2.85;;
27642;SDS011;15053;48.618;10.024;2022-11-20T02:41:54;4.43;;;3.25;;
27642;SDS011;15053;48.618;10.024;2022-11-20T02:44:22;5.22;;;3.22;;
27642;SDS011;15053;48.618;10.024;2022-11-20T02:46:48;5.03;;;3.30;;
27642;SDS011;15053;48.618;10.024;2022-11-20T02:49:15;4.47;;;2.92;;
27642;SDS011;15053;48.618;10.024;2022-11-20T02:51:43;5.00;;;2.88;;
27642;SDS011;15053;48.618;10.024;2022-11-20T02:54:10;4.38;;;3.05;;
27642;SDS011;15053;48.618;10.024;2022-11-20T02:56:37;6.40;;;3.33;;
27642;SDS011;15053;48.618;10.024;2022-11-20T02:59:04;4.43;;;3.17;;
27642;SDS011;15053;48.618;10.024;2022-11-20T03:01:31;3.95;;;3.20;;
27642;SDS011;15053;48.618;10.024;2022-11-20T03:03:58;4.82;;;3.13;;
27642;SDS011;15053;48.618;10.024;2022-11-20T03:06:24;5.15;;;3.10;;
27642;SDS011;15053;48.618;10.024;2022-11-20T03:08:51;5.75;;;3.63;;
27642;SDS011;15053;48.618;10.024;2022-11-20T03:11:17;4.70;;;3.25;;
27642;SDS011;15053;48.618;10.024;2022-11-20T03:13:43;7.05;;;3.13;;
27642;SDS011;15053;48.618;10.024;2022-11-20T03:16:12;4.55;;;3.33;;
27642;SDS011;15053;48.618;10.024;2022-11-20T03:18:40;4.60;;;3.33;;
27642;SDS011;15053;48.618;10.024;2022-11-20T03:21:08;4.95;;;3.45;;
27642;SDS011;15053;48.618;10.024;2022-11-20T03:23:36;5.78;;;3.17;;
27642;SDS011;15053;48.618;10.024;2022-11-20T03:26:22;6.38;;;3.10;;
27642;SDS011;15053;48.618;10.024;2022-11-20T03:28:57;4.47;;;2.83;;
27642;SDS011;15053;48.618;10.024;2022-11-20T03:31:26;4.10;;;3.30;;
27642;SDS011;15053;48.618;10.024;2022-11-20T03:33:56;6.90;;;3.72;;
27642;SDS011;15053;48.618;10.024;2022-11-20T03:36:24;5.28;;;3.50;;
27642;SDS011;15053;48.618;10.024;2022-11-20T03:38:52;6.40;;;4.07;;
27642;SDS011;15053;48.618;10.024;2022-11-20T03:41:19;5.93;;;3.50;;
27642;SDS011;15053;48.618;10.024;2022-11-20T03:43:48;5.13;;;3.45;;
27642;SDS011;15053;48.618;10.024;2022-11-20T03:46:15;5.78;;;4.03;;
27642;SDS011;15053;48.618;10.024;2022-11-20T03:48:42;4.38;;;3.33;;
27642;SDS011;15053;48.618;10.024;2022-11-20T03:51:22;7.88;;;4.13;;
27642;SDS011;15053;48.618;10.024;2022-11-20T03:53:55;7.55;;;4.10;;
27642;SDS011;15053;48.618;10.024;2022-11-20T03:56:23;6.53;;;3.50;;
27642;SDS011;15053;48.618;10.024;2022-11-20T03:58:57;7.05;;;3.00;;
27642;SDS011;15053;48.618;10.024;2022-11-20T04:01:30;5.93;;;3.47;;
27642;SDS011;15053;48.618;10.024;2022-11-20T04:03:58;7.65;;;3.85;;
27642;SDS011;15053;48.618;10.024;2022-11-20T04:06:26;5.82;;;4.20;;
27642;SDS011;15053;48.618;10.024;2022-11-20T04:08:54;4.70;;;3.35;;
27642;SDS011;15053;48.618;10.024;2022-11-20T04:11:22;8.88;;;4.55;;
27642;SDS011;15053;48.618;10.024;2022-11-20T04:13:52;6.15;;;4.10;;
27642;SDS011;15053;48.618;10.024;2022-11-20T04:16:20;6.97;;;3.75;;
27642;SDS011;15053;48.618;10.024;2022-11-20T04:18:52;6.72;;;4.32;;
27642;SDS011;15053;48.618;10.024;2022-11-20T04:21:22;5.50;;;3.97;;
27642;SDS011;15053;48.618;10.024;2022-11-20T04:23:50;7.55;;;4.45;;
27642;SDS011;15053;48.618;10.024;2022-11-20T04:26:19;7.10;;;3.95;;
27642;SDS011;15053;48.618;10.024;2022-11-20T04:28:46;6.55;;;3.55;;
27642;SDS011;15053;48.618;10.024;2022-11-20T04:31:14;7.22;;;4.07;;
27642;SDS011;15053;48.618;10.024;2022-11-20T04:33:42;5.88;;;4.53;;
27642;SDS011;15053;48.618;10.024;2022-11-20T04:36:16;6.40;;;4.88;;
27642;SDS011;15053;48.618;10.024;2022-11-20T04:38:51;6.35;;;4.57;;
27642;SDS011;15053;48.618;10.024;2022-11-20T04:41:22;6.85;;;4.15;;
27642;SDS011;15053;48.618;10.024;2022-11-20T04:43:57;6.88;;;4.88;;
27642;SDS011;15053;48.618;10.024;2022-11-20T04:46:30;5.82;;;3.80;;
27642;SDS011;15053;48.618;10.024;2022-11-20T04:48:58;8.07;;;4.18;;
27642;SDS011;15053;48.618;10.024;2022-11-20T04:51:25;7.38;;;4.30;;
27642;SDS011;15053;48.618;10.024;2022-11-20T04:53:52;8.25;;;4.07;;
27642;SDS011;15053;48.618;10.024;2022-11-20T04:56:19;6.65;;;4.82;;
27642;SDS011;15053;48.618;10.024;2022-11-20T04:58:45;5.15;;;3.97;;
27642;SDS011;15053;48.618;10.024;2022-11-20T05:01:13;5.72;;;3.55;;
27642;SDS011;15053;48.618;10.024;2022-11-20T05:03:41;8.63;;;3.80;;
27642;SDS011;15053;48.618;10.024;2022-11-20T05:06:10;5.40;;;3.53;;
27642;SDS011;15053;48.618;10.024;2022-11-20T05:08:38;6.63;;;4.40;;
27642;SDS011;15053;48.618;10.024;2022-11-20T05:11:05;5.38;;;3.88;;
27642;SDS011;15053;48.618;10.024;2022-11-20T05:13:34;4.90;;;3.53;;
27642;SDS011;15053;48.618;10.024;2022-11-20T05:16:05;5.85;;;3.75;;
27642;SDS011;15053;48.618;10.024;2022-11-20T05:18:34;7.18;;;3.83;;
27642;SDS011;15053;48.618;10.024;2022-11-20T05:21:00;5.95;;;3.25;;
27642;SDS011;15053;48.618;10.024;2022-11-20T05:23:27;6.13;;;4.15;;
27642;SDS011;15053;48.618;10.024;2022-11-20T05:25:56;7.60;;;4.90;;
27642;SDS011;15053;48.618;10.024;2022-11-20T05:28:25;8.50;;;4.78;;
27642;SDS011;15053;48.618;10.024;2022-11-20T05:30:53;7.53;;;4.32;;
27642;SDS011;15053;48.618;10.024;2022-11-20T05:33:20;6.00;;;4.13;;
27642;SDS011;15053;48.618;10.024;2022-11-20T05:35:46;6.28;;;4.75;;
27642;SDS011;15053;48.618;10.024;2022-11-20T05:38:14;5.57;;;3.63;;
27642;SDS011;15053;48.618;10.024;2022-11-20T05:40:41;7.10;;;4.22;;
27642;SDS011;15053;48.618;10.024;2022-11-20T05:43:07;5.78;;;3.35;;
27642;SDS011;15053;48.618;10.024;2022-11-20T05:45:34;4.43;;;3.90;;
27642;SDS011;15053;48.618;10.024;2022-11-20T05:48:01;5.00;;;3.70;;
27642;SDS011;15053;48.618;10.024;2022-11-20T05:50:27;6.45;;;3.97;;
27642;SDS011;15053;48.618;10.024;2022-11-20T05:52:54;6.55;;;3.85;;
27642;SDS011;15053;48.618;10.024;2022-11-20T05:55:20;3.97;;;3.30;;
27642;SDS011;15053;48.618;10.024;2022-11-20T05:57:47;7.35;;;3.90;;
27642;SDS011;15053;48.618;10.024;2022-11-20T06:00:14;4.72;;;4.15;;
27642;SDS011;15053;48.618;10.024;2022-11-20T06:02:40;5.55;;;4.07;;
27642;SDS011;15053;48.618;10.024;2022-11-20T06:05:07;9.20;;;4.95;;
27642;SDS011;15053;48.618;10.024;2022-11-20T06:07:34;5.50;;;4.05;;
27642;SDS011;15053;48.618;10.024;2022-11-20T06:10:00;6.95;;;4.47;;
27642;SDS011;15053;48.618;10.024;2022-11-20T06:12:27;6.82;;;4.22;;
27642;SDS011;15053;48.618;10.024;2022-11-20T06:14:53;5.25;;;4.22;;
27642;SDS011;15053;48.618;10.024;2022-11-20T06:17:20;9.52;;;4.40;;
27642;SDS011;15053;48.618;10.024;2022-11-20T06:19:46;6.47;;;4.45;;
27642;SDS011;15053;48.618;10.024;2022-11-20T06:22:12;6.07;;;4.07;;
27642;SDS011;15053;48.618;10.024;2022-11-20T06:24:39;6.43;;;4.50;;
27642;SDS011;15053;48.618;10.024;2022-11-20T06:27:05;6.30;;;3.95;;
27642;SDS011;15053;48.618;10.024;2022-11-20T06:29:32;7.22;;;4.22;;
27642;SDS011;15053;48.618;10.024;2022-11-20T06:31:59;8.63;;;4.53;;
27642;SDS011;15053;48.618;10.024;2022-11-20T06:34:26;6.47;;;4.18;;
27642;SDS011;15053;48.618;10.024;2022-11-20T06:36:52;8.95;;;4.78;;
27642;SDS011;15053;48.618;10.024;2022-11-20T06:39:19;7.60;;;4.93;;
27642;SDS011;15053;48.618;10.024;2022-11-20T06:41:46;6.60;;;4.30;;
27642;SDS011;15053;48.618;10.024;2022-11-20T06:44:12;5.32;;;4.30;;
27642;SDS011;15053;48.618;10.024;2022-11-20T06:46:39;6.53;;;4.28;;
27642;SDS011;15053;48.618;10.024;2022-11-20T06:49:05;5.38;;;4.15;;
27642;SDS011;15053;48.618;10.024;2022-11-20T06:51:32;5.45;;;4.03;;
27642;SDS011;15053;48.618;10.024;2022-11-20T06:53:58;9.07;;;4.88;;
27642;SDS011;15053;48.618;10.024;2022-11-20T06:56:26;8.07;;;4.50;;
27642;SDS011;15053;48.618;10.024;2022-11-20T06:58:54;5.35;;;3.97;;
27642;SDS011;15053;48.618;10.024;2022-11-20T07:01:20;6.82;;;4.18;;
27642;SDS011;15053;48.618;10.024;2022-11-20T07:03:48;6.05;;;4.75;;
27642;SDS011;15053;48.618;10.024;2022-11-20T07:06:19;5.95;;;3.78;;
27642;SDS011;15053;48.618;10.024;2022-11-20T07:08:46;6.57;;;3.83;;
27642;SDS011;15053;48.618;10.024;2022-11-20T07:11:13;6.75;;;3.80;;
27642;SDS011;15053;48.618;10.024;2022-11-20T07:13:39;4.22;;;3.25;;
27642;SDS011;15053;48.618;10.024;2022-11-20T07:16:07;4.07;;;3.13;;
27642;SDS011;15053;48.618;10.024;2022-11-20T07:18:34;3.85;;;3.20;;
27642;SDS011;15053;48.618;10.024;2022-11-20T07:21:01;5.28;;;2.78;;
27642;SDS011;15053;48.618;10.024;2022-11-20T07:23:29;4.53;;;3.35;;
27642;SDS011;15053;48.618;10.024;2022-11-20T07:25:55;5.95;;;3.63;;
27642;SDS011;15053;48.618;10.024;2022-11-20T07:28:22;4.20;;;3.00;;
27642;SDS011;15053;48.618;10.024;2022-11-20T07:30:49;3.72;;;2.95;;
27642;SDS011;15053;48.618;10.024;2022-11-20T07:33:16;3.38;;;3.00;;
27642;SDS011;15053;48.618;10.024;2022-11-20T07:35:43;5.22;;;2.80;;
27642;SDS011;15053;48.618;10.024;2022-11-20T07:38:09;4.00;;;2.92;;
27642;SDS011;15053;48.618;10.024;2022-11-20T07:40:35;5.38;;;3.00;;
27642;SDS011;15053;48.618;10.024;2022-11-20T07:43:02;5.10;;;3.00;;
27642;SDS011;15053;48.618;10.024;2022-11-20T07:45:28;5.72;;;3.63;;
27642;SDS011;15053;48.618;10.024;2022-11-20T07:47:55;3.22;;;2.90;;
27642;SDS011;15053;48.618;10.024;2022-11-20T07:50:22;3.70;;;3.03;;
27642;SDS011;15053;48.618;10.024;2022-11-20T07:52:48;4.80;;;3.22;;
27642;SDS011;15053;48.618;10.024;2022-11-20T07:55:15;7.75;;;3.20;;
27642;SDS011;15053;48.618;10.024;2022-11-20T07:57:41;5.97;;;3.35;;
27642;SDS011;15053;48.618;10.024;2022-11-20T08:00:09;6.05;;;4.03;;
27642;SDS011;15053;48.618;10.024;2022-11-20T08:02:40;5.28;;;3.67;;
27642;SDS011;15053;48.618;10.024;2022-11-20T08:05:07;4.82;;;3.53;;
27642;SDS011;15053;48.618;10.024;2022-11-20T08:07:36;10.23;;;5.97;;
27642;SDS011;15053;48.618;10.024;2022-11-20T08:10:03;5.00;;;3.40;;
27642;SDS011;15053;48.618;10.024;2022-11-20T08:12:30;5.13;;;3.55;;
27642;SDS011;15053;48.618;10.024;2022-11-20T08:15:15;5.32;;;3.80;;
27642;SDS011;15053;48.618;10.024;2022-11-20T08:17:42;11.40;;;4.45;;
27642;SDS011;15053;48.618;10.024;2022-11-20T08:20:28;7.53;;;5.75;;
27642;SDS011;15053;48.618;10.024;2022-11-20T08:23:02;6.82;;;4.47;;
27642;SDS011;15053;48.618;10.024;2022-11-20T08:25:32;5.07;;;3.80;;
27642;SDS011;15053;48.618;10.024;2022-11-20T08:28:00;7.03;;;4.45;;
27642;SDS011;15053;48.618;10.024;2022-11-20T08:30:43;4.40;;;3.22;;
27642;SDS011;15053;48.618;10.024;2022-11-20T08:33:10;4.18;;;3.00;;
27642;SDS011;15053;48.618;10.024;2022-11-20T08:35:37;5.47;;;3.20;;
27642;SDS011;15053;48.618;10.024;2022-11-20T08:38:04;6.88;;;3.63;;
27642;SDS011;15053;48.618;10.024;2022-11-20T08:40:31;4.65;;;3.20;;
27642;SDS011;15053;48.618;10.024;2022-11-20T08:42:58;5.05;;;3.40;;
27642;SDS011;15053;48.618;10.024;2022-11-20T08:45:24;6.03;;;3.80;;
27642;SDS011;15053;48.618;10.024;2022-11-20T08:48:02;4.97;;;3.53;;
27642;SDS011;15053;48.618;10.024;2022-11-20T08:50:30;5.28;;;3.17;;
27642;SDS011;15053;48.618;10.024;2022-11-20T08:53:02;5.07;;;3.10;;
27642;SDS011;15053;48.618;10.024;2022-11-20T08:57:56;5.43;;;3.95;;
27642;SDS011;15053;48.618;10.024;2022-11-20T09:00:22;5.25;;;3.60;;
27642;SDS011;15053;48.618;10.024;2022-11-20T09:02:49;4.43;;;3.65;;
27642;SDS011;15053;48.618;10.024;2022-11-20T09:05:15;8.07;;;4.18;;
27642;SDS011;15053;48.618;10.024;2022-11-20T09:07:42;6.30;;;4.18;;
27642;SDS011;15053;48.618;10.024;2022-11-20T09:10:08;6.25;;;4.60;;
27642;SDS011;15053;48.618;10.024;2022-11-20T09:12:49;5.13;;;3.50;;
27642;SDS011;15053;48.618;10.024;2022-11-20T09:15:16;4.30;;;3.45;;
27642;SDS011;15053;48.618;10.024;2022-11-20T09:17:50;5.32;;;2.88;;
27642;SDS011;15053;48.618;10.024;2022-11-20T09:20:27;4.85;;;3.85;;
27642;SDS011;15053;48.618;10.024;2022-11-20T09:22:55;6.30;;;4.13;;
27642;SDS011;15053;48.618;10.024;2022-11-20T09:25:22;4.45;;;3.45;;
27642;SDS011;15053;48.618;10.024;2022-11-20T09:27:54;5.43;;;3.92;;
27642;SDS011;15053;48.618;10.024;2022-11-20T09:30:24;4.85;;;3.60;;
27642;SDS011;15053;48.618;10.024;2022-11-20T09:32:51;8.20;;;3.35;;
27642;SDS011;15053;48.618;10.024;2022-11-20T09:35:18;4.10;;;3.20;;
27642;SDS011;15053;48.618;10.024;2022-11-20T09:37:45;4.30;;;2.97;;
27642;SDS011;15053;48.618;10.024;2022-11-20T09:40:27;6.53;;;2.80;;
27642;SDS011;15053;48.618;10.024;2022-11-20T09:43:17;3.88;;;2.95;;
27642;SDS011;15053;48.618;10.024;2022-11-20T09:48:42;4.70;;;2.97;;
27642;SDS011;15053;48.618;10.024;2022-11-20T09:56:50;5.50;;;3.88;;
27642;SDS011;15053;48.618;10.024;2022-11-20T09:59:27;8.27;;;4.10;;
27642;SDS011;15053;48.618;10.024;2022-11-20T10:02:00;4.50;;;3.42;;
27642;SDS011;15053;48.618;10.024;2022-11-20T10:04:29;3.47;;;3.03;;
27642;SDS011;15053;48.618;10.024;2022-11-20T10:07:11;3.05;;;2.60;;
27642;SDS011;15053;48.618;10.024;2022-11-20T10:09:58;5.88;;;2.90;;
27642;SDS011;15053;48.618;10.024;2022-11-20T10:15:22;2.90;;;2.55;;
27642;SDS011;15053;48.618;10.024;2022-11-20T10:21:12;4.53;;;3.25;;
27642;SDS011;15053;48.618;10.024;2022-11-20T10:26:44;4.93;;;2.63;;
27642;SDS011;15053;48.618;10.024;2022-11-20T10:29:33;6.38;;;2.90;;
27642;SDS011;15053;48.618;10.024;2022-11-20T10:32:03;4.32;;;2.88;;
27642;SDS011;15053;48.618;10.024;2022-11-20T10:34:45;3.75;;;2.65;;
27642;SDS011;15053;48.618;10.024;2022-11-20T10:37:23;3.80;;;3.08;;
27642;SDS011;15053;48.618;10.024;2022-11-20T10:40:02;3.33;;;2.83;;
27642;SDS011;15053;48.618;10.024;2022-11-20T10:42:44;4.35;;;3.10;;
27642;SDS011;15053;48.618;10.024;2022-11-20T10:48:38;4.50;;;2.92;;
27642;SDS011;15053;48.618;10.024;2022-11-20T10:51:12;3.97;;;2.80;;
27642;SDS011;15053;48.618;10.024;2022-11-20T10:54:12;5.43;;;3.00;;
27642;SDS011;15053;48.618;10.024;2022-11-20T10:56:41;3.28;;;2.60;;
27642;SDS011;15053;48.618;10.024;2022-11-20T11:01:50;5.13;;;3.00;;
27642;SDS011;15053;48.618;10.024;2022-11-20T11:09:32;3.45;;;2.90;;
27642;SDS011;15053;48.618;10.024;2022-11-20T11:12:01;6.20;;;3.90;;
27642;SDS011;15053;48.618;10.024;2022-11-20T11:14:41;4.05;;;3.40;;
27642;SDS011;15053;48.618;10.024;2022-11-20T11:17:22;5.07;;;3.40;;
27642;SDS011;15053;48.618;10.024;2022-11-20T11:19:59;4.50;;;3.05;;
27642;SDS011;15053;48.618;10.024;2022-11-20T11:22:31;5.38;;;2.58;;
27642;SDS011;15053;48.618;10.024;2022-11-20T11:24:59;3.58;;;2.55;;
27642;SDS011;15053;48.618;10.024;2022-11-20T11:27:26;3.47;;;2.47;;
27642;SDS011;15053;48.618;10.024;2022-11-20T11:30:13;2.58;;;2.15;;
27642;SDS011;15053;48.618;10.024;2022-11-20T11:32:41;2.20;;;1.70;;
27642;SDS011;15053;48.618;10.024;2022-11-20T11:35:21;1.95;;;1.70;;
27642;SDS011;15053;48.618;10.024;2022-11-20T11:38:03;2.65;;;1.90;;
27642;SDS011;15053;48.618;10.024;2022-11-20T11:40:33;1.55;;;1.30;;
27642;SDS011;15053;48.618;10.024;2022-11-20T11:43:05;2.95;;;1.50;;
27642;SDS011;15053;48.618;10.024;2022-11-20T11:45:54;1.20;;;1.10;;
27642;SDS011;15053;48.618;10.024;2022-11-20T11:48:21;2.17;;;1.63;;
27642;SDS011;15053;48.618;10.024;2022-11-20T11:50:49;2.08;;;1.52;;
27642;SDS011;15053;48.618;10.024;2022-11-20T11:53:16;2.28;;;1.50;;
27642;SDS011;15053;48.618;10.024;2022-11-20T11:58:48;2.15;;;1.90;;
27642;SDS011;15053;48.618;10.024;2022-11-20T12:06:58;3.55;;;1.85;;
27642;SDS011;15053;48.618;10.024;2022-11-20T12:09:52;2.45;;;1.70;;
27642;SDS011;15053;48.618;10.024;2022-11-20T12:12:32;3.33;;;1.50;;
27642;SDS011;15053;48.618;10.024;2022-11-20T12:15:03;2.20;;;1.38;;
27642;SDS011;15053;48.618;10.024;2022-11-20T12:17:30;4.00;;;1.60;;
27642;SDS011;15053;48.618;10.024;2022-11-20T12:19:57;2.92;;;1.67;;
27642;SDS011;15053;48.618;10.024;2022-11-20T12:22:31;4.00;;;1.60;;
27642;SDS011;15053;48.618;10.024;2022-11-20T12:25:20;2.10;;;1.73;;
27642;SDS011;15053;48.618;10.024;2022-11-20T12:28:05;4.50;;;2.20;;
27642;SDS011;15053;48.618;10.024;2022-11-20T12:30:40;2.38;;;2.00;;
27642;SDS011;15053;48.618;10.024;2022-11-20T12:33:20;3.35;;;2.42;;
27642;SDS011;15053;48.618;10.024;2022-11-20T12:35:58;4.45;;;2.03;;
27642;SDS011;15053;48.618;10.024;2022-11-20T12:41:25;3.75;;;2.30;;
27642;SDS011;15053;48.618;10.024;2022-11-20T12:55:28;8.27;;;2.50;;
27642;SDS011;15053;48.618;10.024;2022-11-20T12:58:34;2.87;;;2.00;;
27642;SDS011;15053;48.618;10.024;2022-11-20T13:01:30;3.70;;;2.15;;
27642;SDS011;15053;48.618;10.024;2022-11-20T13:04:32;4.45;;;1.95;;
27642;SDS011;15053;48.618;10.024;2022-11-20T13:07:02;2.83;;;1.70;;
27642;SDS011;15053;48.618;10.024;2022-11-20T13:09:31;2.53;;;1.60;;
27642;SDS011;15053;48.618;10.024;2022-11-20T13:12:02;4.13;;;1.90;;
27642;SDS011;15053;48.618;10.024;2022-11-20T13:17:14;2.92;;;1.77;;
27642;SDS011;15053;48.618;10.024;2022-11-20T13:19:55;3.13;;;1.70;;
27642;SDS011;15053;48.618;10.024;2022-11-20T13:22:28;3.50;;;2.20;;
27642;SDS011;15053;48.618;10.024;2022-11-20T13:25:27;4.65;;;2.53;;
27642;SDS011;15053;48.618;10.024;2022-11-20T13:27:59;3.28;;;2.28;;
27642;SDS011;15053;48.618;10.024;2022-11-20T13:30:31;2.63;;;2.05;;
27642;SDS011;15053;48.618;10.024;2022-11-20T13:33:06;2.05;;;1.80;;
27642;SDS011;15053;48.618;10.024;2022-11-20T13:35:36;4.00;;;2.22;;
27642;SDS011;15053;48.618;10.024;2022-11-20T13:40:34;2.10;;;1.73;;
27642;SDS011;15053;48.618;10.024;2022-11-20T13:45:54;2.03;;;1.52;;
27642;SDS011;15053;48.618;10.024;2022-11-20T13:48:38;1.90;;;1.48;;
27642;SDS011;15053;48.618;10.024;2022-11-20T13:56:53;2.03;;;1.63;;
27642;SDS011;15053;48.618;10.024;2022-11-20T14:02:23;3.05;;;1.40;;
27642;SDS011;15053;48.618;10.024;2022-11-20T14:07:24;4.53;;;1.40;;
27642;SDS011;15053;48.618;10.024;2022-11-20T14:09:58;2.13;;;1.65;;
27642;SDS011;15053;48.618;10.024;2022-11-20T14:12:28;3.92;;;1.50;;
27642;SDS011;15053;48.618;10.024;2022-11-20T14:14:56;2.35;;;1.23;;
27642;SDS011;15053;48.618;10.024;2022-11-20T14:17:33;2.85;;;1.52;;
27642;SDS011;15053;48.618;10.024;2022-11-20T14:20:05;2.88;;;1.20;;
27642;SDS011;15053;48.618;10.024;2022-11-20T14:22:38;1.08;;;1.00;;
27642;SDS011;15053;48.618;10.024;2022-11-20T14:27:42;2.17;;;1.38;;
27642;SDS011;15053;48.618;10.024;2022-11-20T14:30:14;4.43;;;2.30;;
27642;SDS011;15053;48.618;10.024;2022-11-20T14:32:43;3.97;;;2.00;;
27642;SDS011;15053;48.618;10.024;2022-11-20T14:35:21;1.88;;;1.33;;
27642;SDS011;15053;48.618;10.024;2022-11-20T14:37:52;2.60;;;1.52;;
27642;SDS011;15053;48.618;10.024;2022-11-20T14:40:34;2.95;;;1.40;;
27642;SDS011;15053;48.618;10.024;2022-11-20T14:43:14;3.80;;;1.27;;
27642;SDS011;15053;48.618;10.024;2022-11-20T14:45:48;3.28;;;1.50;;
27642;SDS011;15053;48.618;10.024;2022-11-20T14:48:46;3.08;;;1.75;;
27642;SDS011;15053;48.618;10.024;2022-11-20T14:54:25;2.80;;;1.60;;
27642;SDS011;15053;48.618;10.024;2022-11-20T14:56:53;2.35;;;1.48;;
27642;SDS011;15053;48.618;10.024;2022-11-20T14:59:22;3.00;;;1.30;;
27642;SDS011;15053;48.618;10.024;2022-11-20T15:01:57;6.03;;;2.17;;
27642;SDS011;15053;48.618;10.024;2022-11-20T15:04:26;1.85;;;1.45;;
27642;SDS011;15053;48.618;10.024;2022-11-20T15:06:54;3.75;;;1.48;;
27642;SDS011;15053;48.618;10.024;2022-11-20T15:09:21;2.70;;;1.80;;
27642;SDS011;15053;48.618;10.024;2022-11-20T15:11:55;2.95;;;1.70;;
27642;SDS011;15053;48.618;10.024;2022-11-20T15:14:24;4.10;;;1.73;;
27642;SDS011;15053;48.618;10.024;2022-11-20T15:16:52;2.40;;;2.20;;
27642;SDS011;15053;48.618;10.024;2022-11-20T15:19:20;1.85;;;1.45;;
27642;SDS011;15053;48.618;10.024;2022-11-20T15:21:49;3.42;;;1.58;;
27642;SDS011;15053;48.618;10.024;2022-11-20T15:24:16;4.72;;;1.20;;
27642;SDS011;15053;48.618;10.024;2022-11-20T15:26:43;2.45;;;1.45;;
27642;SDS011;15053;48.618;10.024;2022-11-20T15:29:10;2.97;;;1.48;;
27642;SDS011;15053;48.618;10.024;2022-11-20T15:31:38;1.48;;;1.23;;
27642;SDS011;15053;48.618;10.024;2022-11-20T15:34:09;3.50;;;1.77;;
27642;SDS011;15053;48.618;10.024;2022-11-20T15:36:41;6.50;;;2.43;;
27642;SDS011;15053;48.618;10.024;2022-11-20T15:39:09;3.85;;;1.83;;
27642;SDS011;15053;48.618;10.024;2022-11-20T15:41:35;3.05;;;1.55;;
27642;SDS011;15053;48.618;10.024;2022-11-20T15:44:03;4.03;;;1.95;;
27642;SDS011;15053;48.618;10.024;2022-11-20T15:46:31;6.70;;;2.97;;
27642;SDS011;15053;48.618;10.024;2022-11-20T15:49:03;4.07;;;2.05;;
27642;SDS011;15053;48.618;10.024;2022-11-20T15:51:31;5.28;;;2.17;;
27642;SDS011;15053;48.618;10.024;2022-11-20T15:54:09;5.85;;;2.50;;
27642;SDS011;15053;48.618;10.024;2022-11-20T15:56:37;7.30;;;3.35;;
27642;SDS011;15053;48.618;10.024;2022-11-20T15:59:03;4.75;;;2.70;;
27642;SDS011;15053;48.618;10.024;2022-11-20T16:01:30;6.97;;;3.38;;
27642;SDS011;15053;48.618;10.024;2022-11-20T16:03:57;9.05;;;4.78;;
27642;SDS011;15053;48.618;10.024;2022-11-20T16:06:23;8.52;;;3.83;;
27642;SDS011;15053;48.618;10.024;2022-11-20T16:08:50;8.73;;;4.00;;
27642;SDS011;15053;48.618;10.024;2022-11-20T16:11:16;5.18;;;3.70;;
27642;SDS011;15053;48.618;10.024;2022-11-20T16:13:43;5.85;;;3.63;;
27642;SDS011;15053;48.618;10.024;2022-11-20T16:16:30;6.38;;;3.55;;